sensor_id;sensor_type;location;lat;lon;timestamp;pressure;altitude;pressure_sealevel;temperature;humidity
47738;BME280;33502;47.182;27.506;2022-12-05T00:01:31;101787.72;;;-3.16;100.00
47738;BME280;33502;47.182;27.506;2022-12-05T00:04:01;101781.63;;;-3.18;100.00
47738;BME280;33502;47.182;27.506;2022-12-05T00:06:28;101788.59;;;-3.16;100.00
47738;BME280;33502;47.182;27.506;2022-12-05T00:08:56;101784.28;;;-3.17;100.00
47738;BME280;33502;47.182;27.506;2022-12-05T00:11:25;101778.97;;;-3.20;100.00
47738;BME280;33502;47.182;27.506;2022-12-05T00:13:52;101780.75;;;-3.19;100.00
47738;BME280;33502;47.182;27.506;2022-12-05T00:16:20;101779.84;;;-3.19;100.00
47738;BME280;33502;47.182;27.506;2022-12-05T00:18:47;101782.44;;;-3.19;100.00
47738;BME280;33502;47.182;27.506;2022-12-05T00:21:15;101790.19;;;-3.19;100.00
47738;BME280;33502;47.182;27.506;2022-12-05T00:23:41;101782.44;;;-3.19;100.00
47738;BME280;33502;47.182;27.506;2022-12-05T00:26:07;101789.31;;;-3.20;100.00
47738;BME280;33502;47.182;27.506;2022-12-05T00:28:34;101794.56;;;-3.18;100.00
47738;BME280;33502;47.182;27.506;2022-12-05T00:31:05;101791.16;;;-3.17;100.00
47738;BME280;33502;47.182;27.506;2022-12-05T00:33:31;101791.16;;;-3.17;100.00
47738;BME280;33502;47.182;27.506;2022-12-05T00:36:07;101790.19;;;-3.19;100.00
47738;BME280;33502;47.182;27.506;2022-12-05T00:38:34;101801.53;;;-3.17;100.00
47738;BME280;33502;47.182;27.506;2022-12-05T00:41:04;101799.03;;;-3.14;100.00
47738;BME280;33502;47.182;27.506;2022-12-05T00:43:31;101801.63;;;-3.14;100.00
47738;BME280;33502;47.182;27.506;2022-12-05T00:46:05;101793.84;;;-3.14;100.00
47738;BME280;33502;47.182;27.506;2022-12-05T00:48:32;101794.72;;;-3.13;100.00
47738;BME280;33502;47.182;27.506;2022-12-05T00:51:02;101791.31;;;-3.12;100.00
47738;BME280;33502;47.182;27.506;2022-12-05T00:53:29;101795.66;;;-3.11;100.00
47738;BME280;33502;47.182;27.506;2022-12-05T00:55:55;101784.41;;;-3.12;100.00
47738;BME280;33502;47.182;27.506;2022-12-05T00:58:21;101794.91;;;-3.09;100.00
47738;BME280;33502;47.182;27.506;2022-12-05T01:00:46;101795.84;;;-3.07;100.00
47738;BME280;33502;47.182;27.506;2022-12-05T01:03:12;101793.25;;;-3.07;100.00
47738;BME280;33502;47.182;27.506;2022-12-05T01:05:38;101799.38;;;-3.05;100.00
47738;BME280;33502;47.182;27.506;2022-12-05T01:08:04;101793.38;;;-3.04;100.00
47738;BME280;33502;47.182;27.506;2022-12-05T01:10:30;101789.06;;;-3.03;100.00
47738;BME280;33502;47.182;27.506;2022-12-05T01:12:55;101793.38;;;-3.04;100.00
47738;BME280;33502;47.182;27.506;2022-12-05T01:15:21;101784.75;;;-3.03;100.00
47738;BME280;33502;47.182;27.506;2022-12-05T01:17:47;101785.63;;;-3.02;100.00
47738;BME280;33502;47.182;27.506;2022-12-05T01:20:12;101790.81;;;-3.02;100.00
47738;BME280;33502;47.182;27.506;2022-12-05T01:22:38;101780.50;;;-3.01;100.00
47738;BME280;33502;47.182;27.506;2022-12-05T01:25:04;101775.38;;;-2.99;100.00
47738;BME280;33502;47.182;27.506;2022-12-05T01:27:30;101784.88;;;-3.00;100.00
47738;BME280;33502;47.182;27.506;2022-12-05T01:29:56;101778.84;;;-2.99;100.00
47738;BME280;33502;47.182;27.506;2022-12-05T01:32:22;101778.03;;;-2.98;100.00
47738;BME280;33502;47.182;27.506;2022-12-05T01:34:48;101774.59;;;-2.97;100.00
47738;BME280;33502;47.182;27.506;2022-12-05T01:37:14;101776.25;;;-2.99;100.00
47738;BME280;33502;47.182;27.506;2022-12-05T01:39:39;101772.00;;;-2.97;100.00
47738;BME280;33502;47.182;27.506;2022-12-05T01:42:05;101766.03;;;-2.96;100.00
47738;BME280;33502;47.182;27.506;2022-12-05T01:46:57;101778.97;;;-2.96;100.00
47738;BME280;33502;47.182;27.506;2022-12-05T01:49:32;101763.44;;;-2.96;100.00
47738;BME280;33502;47.182;27.506;2022-12-05T01:52:12;101762.59;;;-2.95;100.00
47738;BME280;33502;47.182;27.506;2022-12-05T01:54:39;101759.19;;;-2.93;100.00
47738;BME280;33502;47.182;27.506;2022-12-05T01:57:07;101751.41;;;-2.93;100.00
47738;BME280;33502;47.182;27.506;2022-12-05T01:59:38;101758.34;;;-2.92;100.00
47738;BME280;33502;47.182;27.506;2022-12-05T02:02:06;101753.94;;;-2.95;100.00
47738;BME280;33502;47.182;27.506;2022-12-05T02:04:37;101758.25;;;-2.96;100.00
47738;BME280;33502;47.182;27.506;2022-12-05T02:07:04;101750.47;;;-2.96;100.00
47738;BME280;33502;47.182;27.506;2022-12-05T02:09:30;101753.88;;;-2.97;100.00
47738;BME280;33502;47.182;27.506;2022-12-05T02:11:58;101753.00;;;-2.97;100.00
47738;BME280;33502;47.182;27.506;2022-12-05T02:14:28;101747.03;;;-2.95;100.00
47738;BME280;33502;47.182;27.506;2022-12-05T02:25:29;101733.19;;;-2.95;100.00
47738;BME280;33502;47.182;27.506;2022-12-05T02:28:47;101734.91;;;-2.96;100.00
47738;BME280;33502;47.182;27.506;2022-12-05T02:31:10;101737.50;;;-2.96;100.00
47738;BME280;33502;47.182;27.506;2022-12-05T02:33:57;101734.06;;;-2.95;100.00
47738;BME280;33502;47.182;27.506;2022-12-05T02:39:02;101736.66;;;-2.95;100.00
47738;BME280;33502;47.182;27.506;2022-12-05T02:41:40;101734.13;;;-2.93;100.00
47738;BME280;33502;47.182;27.506;2022-12-05T02:44:32;101746.22;;;-2.93;100.00
47738;BME280;33502;47.182;27.506;2022-12-05T02:47:01;101744.50;;;-2.93;100.00
47738;BME280;33502;47.182;27.506;2022-12-05T02:49:31;101743.63;;;-2.93;100.00
47738;BME280;33502;47.182;27.506;2022-12-05T02:52:02;101737.56;;;-2.94;100.00
47738;BME280;33502;47.182;27.506;2022-12-05T02:54:34;101740.16;;;-2.94;100.00
47738;BME280;33502;47.182;27.506;2022-12-05T02:57:01;101730.59;;;-2.95;100.00
47738;BME280;33502;47.182;27.506;2022-12-05T02:59:27;101731.38;;;-2.98;100.00
47738;BME280;33502;47.182;27.506;2022-12-05T03:01:53;101728.81;;;-2.98;100.00
47738;BME280;33502;47.182;27.506;2022-12-05T03:04:22;101722.72;;;-2.98;100.00
47738;BME280;33502;47.182;27.506;2022-12-05T03:09:31;101727.91;;;-2.98;100.00
47738;BME280;33502;47.182;27.506;2022-12-05T03:12:13;101727.09;;;-2.97;100.00
47738;BME280;33502;47.182;27.506;2022-12-05T03:15:07;101726.22;;;-2.98;100.00
47738;BME280;33502;47.182;27.506;2022-12-05T03:17:52;101729.63;;;-2.99;100.00
47738;BME280;33502;47.182;27.506;2022-12-05T03:20:28;101730.50;;;-2.98;100.00
47738;BME280;33502;47.182;27.506;2022-12-05T03:23:02;101737.44;;;-2.97;100.00
47738;BME280;33502;47.182;27.506;2022-12-05T03:26:05;101738.31;;;-2.97;100.00
47738;BME280;33502;47.182;27.506;2022-12-05T03:32:11;101732.25;;;-2.97;100.00
47738;BME280;33502;47.182;27.506;2022-12-05T03:37:46;101737.38;;;-2.99;100.00
47738;BME280;33502;47.182;27.506;2022-12-05T03:46:13;101727.88;;;-3.00;100.00
47738;BME280;33502;47.182;27.506;2022-12-05T03:48:55;101729.56;;;-3.00;100.00
47738;BME280;33502;47.182;27.506;2022-12-05T03:51:32;101731.22;;;-3.02;100.00
47738;BME280;33502;47.182;27.506;2022-12-05T03:54:15;101726.00;;;-3.04;100.00
47738;BME280;33502;47.182;27.506;2022-12-05T03:56:48;101733.72;;;-3.05;100.00
47738;BME280;33502;47.182;27.506;2022-12-05T03:59:34;101735.47;;;-3.04;100.00
47738;BME280;33502;47.182;27.506;2022-12-05T04:02:10;101733.72;;;-3.05;100.00
47738;BME280;33502;47.182;27.506;2022-12-05T04:04:46;101728.41;;;-3.08;100.00
47738;BME280;33502;47.182;27.506;2022-12-05T04:07:15;101730.13;;;-3.09;100.00
47738;BME280;33502;47.182;27.506;2022-12-05T04:09:46;101732.59;;;-3.12;100.00
47738;BME280;33502;47.182;27.506;2022-12-05T04:12:20;101729.94;;;-3.13;100.00
47738;BME280;33502;47.182;27.506;2022-12-05T04:14:49;101730.84;;;-3.13;100.00
47738;BME280;33502;47.182;27.506;2022-12-05T04:17:24;101736.97;;;-3.11;100.00
47738;BME280;33502;47.182;27.506;2022-12-05T04:19:54;101741.25;;;-3.11;100.00
47738;BME280;33502;47.182;27.506;2022-12-05T04:22:41;101730.00;;;-3.12;100.00
47738;BME280;33502;47.182;27.506;2022-12-05T04:25:10;101734.31;;;-3.12;100.00
47738;BME280;33502;47.182;27.506;2022-12-05T04:36:04;101733.44;;;-3.13;100.00
47738;BME280;33502;47.182;27.506;2022-12-05T04:38:41;101730.88;;;-3.11;100.00
47738;BME280;33502;47.182;27.506;2022-12-05T04:41:13;101727.41;;;-3.12;100.00
47738;BME280;33502;47.182;27.506;2022-12-05T04:43:42;101722.22;;;-3.12;100.00
47738;BME280;33502;47.182;27.506;2022-12-05T04:46:12;101730.84;;;-3.13;100.00
47738;BME280;33502;47.182;27.506;2022-12-05T04:48:41;101725.66;;;-3.13;100.00
47738;BME280;33502;47.182;27.506;2022-12-05T04:51:13;101727.41;;;-3.12;100.00
47738;BME280;33502;47.182;27.506;2022-12-05T04:53:41;101729.13;;;-3.12;100.00
47738;BME280;33502;47.182;27.506;2022-12-05T04:56:09;101726.47;;;-3.14;100.00
47738;BME280;33502;47.182;27.506;2022-12-05T04:58:37;101723.88;;;-3.14;100.00
47738;BME280;33502;47.182;27.506;2022-12-05T05:01:26;101720.44;;;-3.15;100.00
47738;BME280;33502;47.182;27.506;2022-12-05T05:04:06;101717.91;;;-3.13;100.00
47738;BME280;33502;47.182;27.506;2022-12-05T05:06:39;101723.06;;;-3.13;100.00
47738;BME280;33502;47.182;27.506;2022-12-05T05:09:05;101725.66;;;-3.13;100.00
47738;BME280;33502;47.182;27.506;2022-12-05T05:11:33;101719.66;;;-3.12;100.00
47738;BME280;33502;47.182;27.506;2022-12-05T05:13:59;101715.31;;;-3.13;100.00
47738;BME280;33502;47.182;27.506;2022-12-05T05:16:37;101710.13;;;-3.13;100.00
47738;BME280;33502;47.182;27.506;2022-12-05T05:19:04;101717.00;;;-3.13;100.00
47738;BME280;33502;47.182;27.506;2022-12-05T05:21:33;101722.22;;;-3.12;100.00
47738;BME280;33502;47.182;27.506;2022-12-05T05:23:59;101720.50;;;-3.11;100.00
47738;BME280;33502;47.182;27.506;2022-12-05T05:26:26;101717.09;;;-3.10;100.00
47738;BME280;33502;47.182;27.506;2022-12-05T05:28:53;101716.25;;;-3.11;100.00
47738;BME280;33502;47.182;27.506;2022-12-05T05:31:19;101727.53;;;-3.09;100.00
47738;BME280;33502;47.182;27.506;2022-12-05T05:33:53;101722.34;;;-3.09;100.00
47738;BME280;33502;47.182;27.506;2022-12-05T05:36:21;101737.06;;;-3.08;100.00
47738;BME280;33502;47.182;27.506;2022-12-05T05:38:49;101728.47;;;-3.07;100.00
47738;BME280;33502;47.182;27.506;2022-12-05T05:41:17;101726.69;;;-3.08;100.00
47738;BME280;33502;47.182;27.506;2022-12-05T05:43:44;101726.75;;;-3.06;100.00
47738;BME280;33502;47.182;27.506;2022-12-05T05:46:11;101726.81;;;-3.05;100.00
47738;BME280;33502;47.182;27.506;2022-12-05T05:48:38;101732.81;;;-3.06;100.00
47738;BME280;33502;47.182;27.506;2022-12-05T05:51:06;101735.47;;;-3.04;100.00
47738;BME280;33502;47.182;27.506;2022-12-05T05:53:32;101742.38;;;-3.05;100.00
47738;BME280;33502;47.182;27.506;2022-12-05T05:56:06;101733.78;;;-3.04;100.00
47738;BME280;33502;47.182;27.506;2022-12-05T05:58:33;101738.13;;;-3.03;100.00
47738;BME280;33502;47.182;27.506;2022-12-05T06:01:07;101740.75;;;-3.01;100.00
47738;BME280;33502;47.182;27.506;2022-12-05T06:03:33;101742.50;;;-3.00;100.00
47738;BME280;33502;47.182;27.506;2022-12-05T06:06:01;101738.22;;;-3.00;100.00
47738;BME280;33502;47.182;27.506;2022-12-05T06:08:29;101736.56;;;-2.98;100.00
47738;BME280;33502;47.182;27.506;2022-12-05T06:10:56;101741.81;;;-2.96;100.00
47738;BME280;33502;47.182;27.506;2022-12-05T06:13:21;101738.44;;;-2.93;100.00
47738;BME280;33502;47.182;27.506;2022-12-05T06:15:47;101740.25;;;-2.91;100.00
47738;BME280;33502;47.182;27.506;2022-12-05T06:18:13;101738.53;;;-2.90;100.00
47738;BME280;33502;47.182;27.506;2022-12-05T06:20:39;101735.13;;;-2.89;100.00
47738;BME280;33502;47.182;27.506;2022-12-05T06:23:04;101735.19;;;-2.88;100.00
47738;BME280;33502;47.182;27.506;2022-12-05T06:25:30;101737.84;;;-2.85;100.00
47738;BME280;33502;47.182;27.506;2022-12-05T06:27:56;101740.50;;;-2.83;100.00
47738;BME280;33502;47.182;27.506;2022-12-05T06:30:22;101738.03;;;-2.80;100.00
47738;BME280;33502;47.182;27.506;2022-12-05T06:32:48;101741.56;;;-2.78;100.00
47738;BME280;33502;47.182;27.506;2022-12-05T06:35:13;101743.44;;;-2.74;100.00
47738;BME280;33502;47.182;27.506;2022-12-05T06:37:44;101749.59;;;-2.70;100.00
47738;BME280;33502;47.182;27.506;2022-12-05T06:40:14;101746.34;;;-2.65;100.00
47738;BME280;33502;47.182;27.506;2022-12-05T06:42:40;101748.19;;;-2.61;100.00
47738;BME280;33502;47.182;27.506;2022-12-05T06:45:06;101750.06;;;-2.57;100.00
47738;BME280;33502;47.182;27.506;2022-12-05T06:47:32;101747.59;;;-2.53;100.00
47738;BME280;33502;47.182;27.506;2022-12-05T06:49:58;101742.41;;;-2.53;100.00
47738;BME280;33502;47.182;27.506;2022-12-05T06:52:24;101751.13;;;-2.51;100.00
47738;BME280;33502;47.182;27.506;2022-12-05T06:54:49;101744.94;;;-2.55;100.00
47738;BME280;33502;47.182;27.506;2022-12-05T06:57:15;101744.78;;;-2.60;100.00
47738;BME280;33502;47.182;27.506;2022-12-05T06:59:41;101743.81;;;-2.63;100.00
47738;BME280;33502;47.182;27.506;2022-12-05T07:02:08;101743.81;;;-2.63;100.00
47738;BME280;33502;47.182;27.506;2022-12-05T07:04:34;101740.28;;;-2.65;100.00
47738;BME280;33502;47.182;27.506;2022-12-05T07:07:00;101741.97;;;-2.66;100.00
47738;BME280;33502;47.182;27.506;2022-12-05T07:09:27;101741.22;;;-2.63;100.00
47738;BME280;33502;47.182;27.506;2022-12-05T07:12:15;101749.88;;;-2.63;100.00
47738;BME280;33502;47.182;27.506;2022-12-05T07:14:41;101754.38;;;-2.57;100.00
47738;BME280;33502;47.182;27.506;2022-12-05T07:17:08;101749.25;;;-2.56;100.00
47738;BME280;33502;47.182;27.506;2022-12-05T07:19:34;101750.06;;;-2.57;100.00
47738;BME280;33502;47.182;27.506;2022-12-05T07:22:00;101751.06;;;-2.53;100.00
47738;BME280;33502;47.182;27.506;2022-12-05T07:24:26;101744.31;;;-2.48;100.00
47738;BME280;33502;47.182;27.506;2022-12-05T07:26:52;101753.22;;;-2.40;100.00
47738;BME280;33502;47.182;27.506;2022-12-05T07:29:18;101753.41;;;-2.35;100.00
47738;BME280;33502;47.182;27.506;2022-12-05T07:31:44;101754.41;;;-2.30;100.00
47738;BME280;33502;47.182;27.506;2022-12-05T07:34:10;101768.22;;;-2.31;100.00
47738;BME280;33502;47.182;27.506;2022-12-05T07:36:36;101763.81;;;-2.33;100.00
47738;BME280;33502;47.182;27.506;2022-12-05T07:39:02;101768.22;;;-2.31;100.00
47738;BME280;33502;47.182;27.506;2022-12-05T07:41:31;101773.69;;;-2.22;100.00
47738;BME280;33502;47.182;27.506;2022-12-05T07:43:58;101777.34;;;-2.17;100.00
47738;BME280;33502;47.182;27.506;2022-12-05T07:46:25;101772.00;;;-2.21;100.00
47738;BME280;33502;47.182;27.506;2022-12-05T07:48:53;101775.59;;;-2.16;100.00
47738;BME280;33502;47.182;27.506;2022-12-05T07:51:20;101772.25;;;-2.13;100.00
47738;BME280;33502;47.182;27.506;2022-12-05T07:53:46;101774.94;;;-2.10;100.00
47738;BME280;33502;47.182;27.506;2022-12-05T07:56:14;101772.56;;;-2.04;100.00
47738;BME280;33502;47.182;27.506;2022-12-05T07:58:45;101773.50;;;-2.01;100.00
47738;BME280;33502;47.182;27.506;2022-12-05T08:03:40;101772.88;;;-1.93;100.00
47738;BME280;33502;47.182;27.506;2022-12-05T08:06:08;101782.50;;;-1.91;100.00
47738;BME280;33502;47.182;27.506;2022-12-05T08:08:35;101779.16;;;-1.87;100.00
47738;BME280;33502;47.182;27.506;2022-12-05T08:11:06;101778.59;;;-1.77;100.00
47738;BME280;33502;47.182;27.506;2022-12-05T08:13:32;101777.78;;;-1.75;100.00
47738;BME280;33502;47.182;27.506;2022-12-05T08:16:26;101778.78;;;-1.70;100.00
47738;BME280;33502;47.182;27.506;2022-12-05T08:19:00;101772.47;;;-1.79;100.00
47738;BME280;33502;47.182;27.506;2022-12-05T08:21:27;101769.09;;;-1.76;100.00
47738;BME280;33502;47.182;27.506;2022-12-05T08:23:53;101774.34;;;-1.74;100.00
47738;BME280;33502;47.182;27.506;2022-12-05T08:26:29;101765.78;;;-1.70;100.00
47738;BME280;33502;47.182;27.506;2022-12-05T08:29:00;101773.81;;;-1.64;100.00
47738;BME280;33502;47.182;27.506;2022-12-05T08:31:29;101768.78;;;-1.58;100.00
47738;BME280;33502;47.182;27.506;2022-12-05T08:33:57;101763.75;;;-1.52;100.00
47738;BME280;33502;47.182;27.506;2022-12-05T08:36:23;101759.31;;;-1.56;100.00
47738;BME280;33502;47.182;27.506;2022-12-05T08:38:55;101760.25;;;-1.54;100.00
47738;BME280;33502;47.182;27.506;2022-12-05T08:41:21;101758.66;;;-1.49;100.00
47738;BME280;33502;47.182;27.506;2022-12-05T08:43:47;101756.78;;;-1.53;100.00
47738;BME280;33502;47.182;27.506;2022-12-05T08:46:13;101755.31;;;-1.45;100.00
47738;BME280;33502;47.182;27.506;2022-12-05T08:48:39;101751.09;;;-1.41;100.00
47738;BME280;33502;47.182;27.506;2022-12-05T08:51:06;101752.03;;;-1.39;100.00
47738;BME280;33502;47.182;27.506;2022-12-05T08:53:33;101743.25;;;-1.43;100.00
47738;BME280;33502;47.182;27.506;2022-12-05T08:56:02;101734.81;;;-1.35;100.00
47738;BME280;33502;47.182;27.506;2022-12-05T08:58:29;101733.28;;;-1.27;100.00
47738;BME280;33502;47.182;27.506;2022-12-05T09:01:06;101729.91;;;-1.25;100.00
47738;BME280;33502;47.182;27.506;2022-12-05T09:03:32;101729.03;;;-1.25;100.00
47738;BME280;33502;47.182;27.506;2022-12-05T09:06:16;101724.78;;;-1.22;100.00
47738;BME280;33502;47.182;27.506;2022-12-05T09:08:42;101724.19;;;-1.11;100.00
47738;BME280;33502;47.182;27.506;2022-12-05T09:11:15;101720.47;;;-0.89;100.00
47738;BME280;33502;47.182;27.506;2022-12-05T09:13:41;101719.50;;;-0.60;100.00
47738;BME280;33502;47.182;27.506;2022-12-05T09:16:19;101714.63;;;-0.47;100.00
47738;BME280;33502;47.182;27.506;2022-12-05T09:18:46;101706.13;;;-0.40;100.00
47738;BME280;33502;47.182;27.506;2022-12-05T09:21:18;101699.66;;;0.20;100.00
47738;BME280;33502;47.182;27.506;2022-12-05T09:23:44;101704.22;;;0.29;100.00
47738;BME280;33502;47.182;27.506;2022-12-05T09:26:12;101700.25;;;0.48;100.00
47738;BME280;33502;47.182;27.506;2022-12-05T09:28:39;101689.31;;;0.66;100.00
47738;BME280;33502;47.182;27.506;2022-12-05T09:31:08;101690.72;;;0.48;100.00
47738;BME280;33502;47.182;27.506;2022-12-05T09:33:37;101694.03;;;0.85;100.00
47738;BME280;33502;47.182;27.506;2022-12-05T09:36:10;101689.84;;;0.93;100.00
47738;BME280;33502;47.182;27.506;2022-12-05T09:38:36;101690.56;;;0.85;100.00
47738;BME280;33502;47.182;27.506;2022-12-05T09:44:21;101682.50;;;-0.11;100.00
47738;BME280;33502;47.182;27.506;2022-12-05T09:46:59;101681.31;;;-0.24;100.00
47738;BME280;33502;47.182;27.506;2022-12-05T09:49:27;101675.03;;;-0.34;100.00
47738;BME280;33502;47.182;27.506;2022-12-05T09:51:56;101672.88;;;-0.50;100.00
47738;BME280;33502;47.182;27.506;2022-12-05T09:54:23;101667.00;;;-0.43;100.00
47738;BME280;33502;47.182;27.506;2022-12-05T09:56:50;101661.59;;;-0.51;100.00
47738;BME280;33502;47.182;27.506;2022-12-05T09:59:18;101677.56;;;-0.72;100.00
47738;BME280;33502;47.182;27.506;2022-12-05T10:04:54;101666.03;;;-1.15;100.00
47738;BME280;33502;47.182;27.506;2022-12-05T10:15:51;101648.28;;;-1.31;100.00
47738;BME280;33502;47.182;27.506;2022-12-05T10:21:29;101643.56;;;-1.14;100.00
47738;BME280;33502;47.182;27.506;2022-12-05T10:24:04;101644.81;;;-0.99;100.00
47738;BME280;33502;47.182;27.506;2022-12-05T10:26:37;101642.72;;;-0.79;100.00
47738;BME280;33502;47.182;27.506;2022-12-05T10:29:36;101640.72;;;-0.54;100.00
47738;BME280;33502;47.182;27.506;2022-12-05T10:32:29;101634.53;;;-0.59;100.00
47738;BME280;33502;47.182;27.506;2022-12-05T10:35:13;101635.81;;;-0.78;100.00
47738;BME280;33502;47.182;27.506;2022-12-05T10:37:43;101629.47;;;-0.89;100.00
47738;BME280;33502;47.182;27.506;2022-12-05T10:40:11;101621.66;;;-0.89;100.00
47738;BME280;33502;47.182;27.506;2022-12-05T10:42:37;101620.00;;;-0.86;100.00
47738;BME280;33502;47.182;27.506;2022-12-05T10:45:22;101624.00;;;-0.64;100.00
47738;BME280;33502;47.182;27.506;2022-12-05T10:47:53;101614.31;;;-0.69;100.00
47738;BME280;33502;47.182;27.506;2022-12-05T10:50:28;101619.09;;;-0.88;100.00
47738;BME280;33502;47.182;27.506;2022-12-05T10:52:56;101616.50;;;-0.88;100.00
47738;BME280;33502;47.182;27.506;2022-12-05T10:55:28;101629.69;;;-0.80;100.00
47738;BME280;33502;47.182;27.506;2022-12-05T10:58:28;101618.50;;;-0.76;100.00
47738;BME280;33502;47.182;27.506;2022-12-05T11:00:57;101620.22;;;-0.76;100.00
47738;BME280;33502;47.182;27.506;2022-12-05T11:03:27;101616.66;;;-0.82;100.00
47738;BME280;33502;47.182;27.506;2022-12-05T11:05:56;101609.38;;;-0.95;100.00
47738;BME280;33502;47.182;27.506;2022-12-05T11:08:25;101609.53;;;-0.89;100.00
47738;BME280;33502;47.182;27.506;2022-12-05T11:11:02;101602.50;;;-0.93;100.00
47738;BME280;33502;47.182;27.506;2022-12-05T11:13:28;101603.13;;;-1.02;100.00
47738;BME280;33502;47.182;27.506;2022-12-05T11:15:54;101598.59;;;-1.10;100.00
47738;BME280;33502;47.182;27.506;2022-12-05T11:20:50;101594.75;;;-1.25;100.00
47738;BME280;33502;47.182;27.506;2022-12-05T11:23:27;101592.81;;;-1.33;100.00
47738;BME280;33502;47.182;27.506;2022-12-05T11:25:55;101577.03;;;-1.40;100.00
47738;BME280;33502;47.182;27.506;2022-12-05T11:28:32;101574.31;;;-1.44;100.00
47738;BME280;33502;47.182;27.506;2022-12-05T11:33:37;101584.97;;;-1.35;100.00
47738;BME280;33502;47.182;27.506;2022-12-05T11:36:23;101585.72;;;-1.39;100.00
47738;BME280;33502;47.182;27.506;2022-12-05T11:38:54;101581.31;;;-1.42;100.00
47738;BME280;33502;47.182;27.506;2022-12-05T11:41:43;101575.38;;;-1.38;100.00
47738;BME280;33502;47.182;27.506;2022-12-05T11:44:25;101565.78;;;-1.40;100.00
47738;BME280;33502;47.182;27.506;2022-12-05T11:50:12;101569.94;;;-1.45;100.00
47738;BME280;33502;47.182;27.506;2022-12-05T11:53:15;101565.72;;;-1.43;100.00
47738;BME280;33502;47.182;27.506;2022-12-05T11:55:50;101567.34;;;-1.47;100.00
47738;BME280;33502;47.182;27.506;2022-12-05T12:06:28;101555.38;;;-1.73;100.00
47738;BME280;33502;47.182;27.506;2022-12-05T12:14:34;101547.16;;;-1.89;100.00
47738;BME280;33502;47.182;27.506;2022-12-05T12:39:16;101527.22;;;-1.90;100.00
47738;BME280;33502;47.182;27.506;2022-12-05T12:59:02;101526.03;;;-2.01;100.00
47738;BME280;33502;47.182;27.506;2022-12-05T13:01:45;101518.31;;;-2.00;100.00
47738;BME280;33502;47.182;27.506;2022-12-05T13:04:18;101517.38;;;-2.02;100.00
47738;BME280;33502;47.182;27.506;2022-12-05T13:06:51;101513.94;;;-2.01;100.00
47738;BME280;33502;47.182;27.506;2022-12-05T13:09:21;101513.00;;;-2.04;100.00
47738;BME280;33502;47.182;27.506;2022-12-05T13:11:49;101515.53;;;-2.06;100.00
47738;BME280;33502;47.182;27.506;2022-12-05T13:14:18;101503.38;;;-2.07;100.00
47738;BME280;33502;47.182;27.506;2022-12-05T13:16:47;101511.16;;;-2.07;100.00
47738;BME280;33502;47.182;27.506;2022-12-05T13:22:05;101507.72;;;-2.07;100.00
47738;BME280;33502;47.182;27.506;2022-12-05T13:24:33;101512.03;;;-2.08;100.00
47738;BME280;33502;47.182;27.506;2022-12-05T13:27:04;101511.97;;;-2.09;100.00
47738;BME280;33502;47.182;27.506;2022-12-05T13:29:46;101502.47;;;-2.09;100.00
47738;BME280;33502;47.182;27.506;2022-12-05T13:32:42;101500.56;;;-2.14;100.00
47738;BME280;33502;47.182;27.506;2022-12-05T13:35:15;101503.16;;;-2.14;100.00
47738;BME280;33502;47.182;27.506;2022-12-05T13:38:02;101506.56;;;-2.17;100.00
47738;BME280;33502;47.182;27.506;2022-12-05T13:40:51;101516.09;;;-2.18;100.00
47738;BME280;33502;47.182;27.506;2022-12-05T13:43:48;101513.44;;;-2.19;100.00
47738;BME280;33502;47.182;27.506;2022-12-05T13:46:34;101509.13;;;-2.19;100.00
47738;BME280;33502;47.182;27.506;2022-12-05T13:49:15;101505.59;;;-2.21;100.00
47738;BME280;33502;47.182;27.506;2022-12-05T13:51:43;101499.53;;;-2.21;100.00
47738;BME280;33502;47.182;27.506;2022-12-05T13:54:44;101498.56;;;-2.25;100.00
47738;BME280;33502;47.182;27.506;2022-12-05T13:57:02;101504.63;;;-2.24;100.00
47738;BME280;33502;47.182;27.506;2022-12-05T14:19:05;101510.75;;;-2.22;100.00
47738;BME280;33502;47.182;27.506;2022-12-05T14:24:28;101503.81;;;-2.23;100.00
47738;BME280;33502;47.182;27.506;2022-12-05T14:32:31;101507.28;;;-2.23;100.00
47738;BME280;33502;47.182;27.506;2022-12-05T14:35:11;101503.75;;;-2.25;100.00
47738;BME280;33502;47.182;27.506;2022-12-05T14:37:52;101515.00;;;-2.24;100.00
47738;BME280;33502;47.182;27.506;2022-12-05T14:45:39;101511.63;;;-2.22;100.00
47738;BME280;33502;47.182;27.506;2022-12-05T14:50:50;101507.31;;;-2.21;100.00
47738;BME280;33502;47.182;27.506;2022-12-05T15:01:13;101514.13;;;-2.25;100.00
47738;BME280;33502;47.182;27.506;2022-12-05T15:03:47;101508.84;;;-2.28;100.00
47738;BME280;33502;47.182;27.506;2022-12-05T15:06:16;101513.97;;;-2.31;100.00
47738;BME280;33502;47.182;27.506;2022-12-05T15:08:47;101509.56;;;-2.33;100.00
47738;BME280;33502;47.182;27.506;2022-12-05T15:11:17;101509.53;;;-2.35;100.00
47738;BME280;33502;47.182;27.506;2022-12-05T15:13:57;101509.53;;;-2.35;100.00
47738;BME280;33502;47.182;27.506;2022-12-05T15:16:24;101504.28;;;-2.37;100.00
47738;BME280;33502;47.182;27.506;2022-12-05T15:19:00;101493.00;;;-2.39;100.00
47738;BME280;33502;47.182;27.506;2022-12-05T15:24:01;101504.94;;;-2.44;100.00
47738;BME280;33502;47.182;27.506;2022-12-05T15:26:38;101512.72;;;-2.44;100.00
47738;BME280;33502;47.182;27.506;2022-12-05T15:31:33;101515.22;;;-2.47;100.00
47738;BME280;33502;47.182;27.506;2022-12-05T15:34:22;101520.38;;;-2.48;100.00
47738;BME280;33502;47.182;27.506;2022-12-05T15:39:28;101520.19;;;-2.54;100.00
47738;BME280;33502;47.182;27.506;2022-12-05T15:41:55;101520.97;;;-2.57;100.00
47738;BME280;33502;47.182;27.506;2022-12-05T15:44:27;101511.34;;;-2.61;100.00